sensor_id;sensor_type;location;lat;lon;timestamp;pressure;altitude;pressure_sealevel;temperature;humidity
66273;BME280;58450;52.150;4.466;2023-01-25T00:01:05;103806.97;;;0.67;100.00
66273;BME280;58450;52.150;4.466;2023-01-25T00:03:33;103801.78;;;0.64;100.00
66273;BME280;58450;52.150;4.466;2023-01-25T00:06:00;103798.22;;;0.65;100.00
66273;BME280;58450;52.150;4.466;2023-01-25T00:08:28;103799.09;;;0.65;100.00
66273;BME280;58450;52.150;4.466;2023-01-25T00:10:55;103795.63;;;0.63;100.00
66273;BME280;58450;52.150;4.466;2023-01-25T00:13:23;103793.72;;;0.67;100.00
66273;BME280;58450;52.150;4.466;2023-01-25T00:15:52;103796.66;;;0.57;100.00
66273;BME280;58450;52.150;4.466;2023-01-25T00:18:19;103786.06;;;0.57;100.00
66273;BME280;58450;52.150;4.466;2023-01-25T00:20:47;103786.88;;;0.59;100.00
66273;BME280;58450;52.150;4.466;2023-01-25T00:23:14;103788.69;;;0.59;100.00
66273;BME280;58450;52.150;4.466;2023-01-25T00:25:42;103777.72;;;0.70;100.00
66273;BME280;58450;52.150;4.466;2023-01-25T00:28:09;103779.53;;;0.69;100.00
66273;BME280;58450;52.150;4.466;2023-01-25T00:30:37;103768.44;;;0.56;100.00
66273;BME280;58450;52.150;4.466;2023-01-25T00:33:34;103766.84;;;0.51;100.00
66273;BME280;58450;52.150;4.466;2023-01-25T00:39:00;103767.63;;;0.54;100.00
66273;BME280;58450;52.150;4.466;2023-01-25T00:41:27;103760.59;;;0.53;100.00
66273;BME280;58450;52.150;4.466;2023-01-25T00:43:55;103765.88;;;0.53;100.00
66273;BME280;58450;52.150;4.466;2023-01-25T00:46:23;103766.69;;;0.55;100.00
66273;BME280;58450;52.150;4.466;2023-01-25T00:48:53;103764.78;;;0.61;100.00
66273;BME280;58450;52.150;4.466;2023-01-25T00:51:21;103760.44;;;0.58;100.00
66273;BME280;58450;52.150;4.466;2023-01-25T00:53:50;103761.06;;;0.66;100.00
66273;BME280;58450;52.150;4.466;2023-01-25T00:56:17;103758.25;;;0.71;100.00
66273;BME280;58450;52.150;4.466;2023-01-25T00:58:45;103756.28;;;0.78;100.00
66273;BME280;58450;52.150;4.466;2023-01-25T01:01:13;103757.13;;;0.80;100.00
66273;BME280;58450;52.150;4.466;2023-01-25T01:03:40;103760.63;;;0.80;100.00
66273;BME280;58450;52.150;4.466;2023-01-25T01:06:11;103760.91;;;0.71;100.00
66273;BME280;58450;52.150;4.466;2023-01-25T01:08:40;103752.13;;;0.69;100.00
66273;BME280;58450;52.150;4.466;2023-01-25T01:11:10;103754.97;;;0.64;100.00
66273;BME280;58450;52.150;4.466;2023-01-25T01:13:39;103761.00;;;0.68;100.00
66273;BME280;58450;52.150;4.466;2023-01-25T01:16:08;103750.31;;;0.71;100.00
66273;BME280;58450;52.150;4.466;2023-01-25T01:18:39;103753.75;;;0.75;100.00
66273;BME280;58450;52.150;4.466;2023-01-25T01:21:11;103758.16;;;0.74;100.00
66273;BME280;58450;52.150;4.466;2023-01-25T01:23:40;103757.22;;;0.77;100.00
66273;BME280;58450;52.150;4.466;2023-01-25T01:26:14;103751.00;;;0.78;100.00
66273;BME280;58450;52.150;4.466;2023-01-25T01:28:44;103744.97;;;0.72;100.00
66273;BME280;58450;52.150;4.466;2023-01-25T01:31:14;103744.06;;;0.73;100.00
66273;BME280;58450;52.150;4.466;2023-01-25T01:33:44;103745.91;;;0.70;100.00
66273;BME280;58450;52.150;4.466;2023-01-25T01:36:19;103744.28;;;0.66;100.00
66273;BME280;58450;52.150;4.466;2023-01-25T01:38:48;103744.25;;;0.67;100.00
66273;BME280;58450;52.150;4.466;2023-01-25T01:41:16;103742.44;;;0.68;100.00
66273;BME280;58450;52.150;4.466;2023-01-25T01:43:44;103745.06;;;0.69;100.00
66273;BME280;58450;52.150;4.466;2023-01-25T01:46:14;103749.47;;;0.70;100.00
66273;BME280;58450;52.150;4.466;2023-01-25T01:48:48;103745.72;;;0.76;100.00
66273;BME280;58450;52.150;4.466;2023-01-25T01:51:23;103750.91;;;0.81;100.00
66273;BME280;58450;52.150;4.466;2023-01-25T01:54:00;103750.06;;;0.79;100.00
66273;BME280;58450;52.150;4.466;2023-01-25T01:56:35;103742.06;;;0.80;100.00
66273;BME280;58450;52.150;4.466;2023-01-25T01:59:07;103739.38;;;0.82;100.00
66273;BME280;58450;52.150;4.466;2023-01-25T02:01:36;103739.50;;;0.77;100.00
66273;BME280;58450;52.150;4.466;2023-01-25T02:04:05;103743.16;;;0.73;100.00
66273;BME280;58450;52.150;4.466;2023-01-25T02:06:40;103741.59;;;0.67;100.00
66273;BME280;58450;52.150;4.466;2023-01-25T02:09:14;103734.66;;;0.63;100.00
66273;BME280;58450;52.150;4.466;2023-01-25T02:11:44;103725.94;;;0.59;100.00
66273;BME280;58450;52.150;4.466;2023-01-25T02:14:14;103735.63;;;0.61;100.00
66273;BME280;58450;52.150;4.466;2023-01-25T02:16:43;103727.00;;;0.54;100.00
66273;BME280;58450;52.150;4.466;2023-01-25T02:19:16;103727.78;;;0.57;100.00
66273;BME280;58450;52.150;4.466;2023-01-25T02:22:01;103727.72;;;0.59;100.00
66273;BME280;58450;52.150;4.466;2023-01-25T02:24:33;103738.34;;;0.59;100.00
66273;BME280;58450;52.150;4.466;2023-01-25T02:27:05;103741.13;;;0.54;100.00
66273;BME280;58450;52.150;4.466;2023-01-25T02:29:34;103725.19;;;0.56;100.00
66273;BME280;58450;52.150;4.466;2023-01-25T02:32:04;103735.81;;;0.54;100.00
66273;BME280;58450;52.150;4.466;2023-01-25T02:34:32;103726.22;;;0.50;100.00
66273;BME280;58450;52.150;4.466;2023-01-25T02:37:01;103714.63;;;0.54;100.00
66273;BME280;58450;52.150;4.466;2023-01-25T02:39:29;103713.59;;;0.58;100.00
66273;BME280;58450;52.150;4.466;2023-01-25T02:41:57;103710.84;;;0.62;100.00
66273;BME280;58450;52.150;4.466;2023-01-25T02:44:28;103714.22;;;0.67;100.00
66273;BME280;58450;52.150;4.466;2023-01-25T02:46:57;103710.63;;;0.69;100.00
66273;BME280;58450;52.150;4.466;2023-01-25T02:49:25;103701.75;;;0.70;100.00
66273;BME280;58450;52.150;4.466;2023-01-25T02:51:54;103698.50;;;0.61;100.00
66273;BME280;58450;52.150;4.466;2023-01-25T02:54:23;103691.88;;;0.47;100.00
66273;BME280;58450;52.150;4.466;2023-01-25T02:56:52;103694.88;;;0.36;100.00
66273;BME280;58450;52.150;4.466;2023-01-25T02:59:19;103693.16;;;0.35;100.00
66273;BME280;58450;52.150;4.466;2023-01-25T03:01:49;103687.31;;;0.25;100.00
66273;BME280;58450;52.150;4.466;2023-01-25T03:04:17;103687.44;;;0.21;100.00
66273;BME280;58450;52.150;4.466;2023-01-25T03:06:45;103688.25;;;0.23;100.00
66273;BME280;58450;52.150;4.466;2023-01-25T03:09:12;103693.41;;;0.27;100.00
66273;BME280;58450;52.150;4.466;2023-01-25T03:11:40;103681.19;;;0.23;100.00
66273;BME280;58450;52.150;4.466;2023-01-25T03:14:07;103689.84;;;0.28;100.00
66273;BME280;58450;52.150;4.466;2023-01-25T03:16:35;103683.47;;;0.34;100.00
66273;BME280;58450;52.150;4.466;2023-01-25T03:19:04;103680.69;;;0.39;100.00
66273;BME280;58450;52.150;4.466;2023-01-25T03:21:31;103677.97;;;0.40;100.00
66273;BME280;58450;52.150;4.466;2023-01-25T03:24:00;103678.75;;;0.44;100.00
66273;BME280;58450;52.150;4.466;2023-01-25T03:26:28;103677.72;;;0.48;100.00
66273;BME280;58450;52.150;4.466;2023-01-25T03:28:56;103683.72;;;0.53;100.00
66273;BME280;58450;52.150;4.466;2023-01-25T03:31:23;103685.34;;;0.59;100.00
66273;BME280;58450;52.150;4.466;2023-01-25T03:33:51;103676.97;;;0.44;100.00
66273;BME280;58450;52.150;4.466;2023-01-25T03:36:20;103675.97;;;0.20;100.00
66273;BME280;58450;52.150;4.466;2023-01-25T03:38:47;103675.09;;;0.20;100.00
66273;BME280;58450;52.150;4.466;2023-01-25T03:41:15;103674.28;;;0.18;100.00
66273;BME280;58450;52.150;4.466;2023-01-25T03:43:42;103672.81;;;0.09;100.00
66273;BME280;58450;52.150;4.466;2023-01-25T03:46:10;103668.66;;;0.00;100.00
66273;BME280;58450;52.150;4.466;2023-01-25T03:48:37;103672.84;;;0.07;100.00
66273;BME280;58450;52.150;4.466;2023-01-25T03:51:05;103670.25;;;0.06;100.00
66273;BME280;58450;52.150;4.466;2023-01-25T03:53:33;103659.41;;;0.13;100.00
66273;BME280;58450;52.150;4.466;2023-01-25T03:56:03;103651.31;;;0.18;100.00
66273;BME280;58450;52.150;4.466;2023-01-25T03:58:33;103659.06;;;0.24;100.00
66273;BME280;58450;52.150;4.466;2023-01-25T04:01:03;103649.09;;;0.33;100.00
66273;BME280;58450;52.150;4.466;2023-01-25T04:03:32;103655.94;;;0.40;100.00
66273;BME280;58450;52.150;4.466;2023-01-25T04:06:01;103651.38;;;0.43;100.00
66273;BME280;58450;52.150;4.466;2023-01-25T04:08:29;103649.56;;;0.46;100.00
66273;BME280;58450;52.150;4.466;2023-01-25T04:11:02;103632.94;;;0.40;100.00
66273;BME280;58450;52.150;4.466;2023-01-25T04:13:31;103639.41;;;0.32;100.00
66273;BME280;58450;52.150;4.466;2023-01-25T04:16:00;103638.41;;;0.36;100.00
66273;BME280;58450;52.150;4.466;2023-01-25T04:18:27;103639.13;;;0.41;100.00
66273;BME280;58450;52.150;4.466;2023-01-25T04:20:56;103632.03;;;0.41;100.00
66273;BME280;58450;52.150;4.466;2023-01-25T04:23:24;103625.72;;;0.46;100.00
66273;BME280;58450;52.150;4.466;2023-01-25T04:25:53;103621.16;;;0.49;100.00
66273;BME280;58450;52.150;4.466;2023-01-25T04:28:23;103621.03;;;0.54;100.00
66273;BME280;58450;52.150;4.466;2023-01-25T04:30:52;103627.03;;;0.59;100.00
66273;BME280;58450;52.150;4.466;2023-01-25T04:33:20;103626.97;;;0.61;100.00
66273;BME280;58450;52.150;4.466;2023-01-25T04:35:48;103625.19;;;0.61;100.00
66273;BME280;58450;52.150;4.466;2023-01-25T04:38:16;103614.69;;;0.58;100.00
66273;BME280;58450;52.150;4.466;2023-01-25T04:40:44;103617.47;;;0.53;100.00
66273;BME280;58450;52.150;4.466;2023-01-25T04:43:12;103616.66;;;0.51;100.00
66273;BME280;58450;52.150;4.466;2023-01-25T04:45:42;103618.41;;;0.52;100.00
66273;BME280;58450;52.150;4.466;2023-01-25T04:48:10;103612.88;;;0.33;100.00
66273;BME280;58450;52.150;4.466;2023-01-25T04:50:40;103616.31;;;0.37;100.00
66273;BME280;58450;52.150;4.466;2023-01-25T04:53:10;103617.88;;;0.42;100.00
66273;BME280;58450;52.150;4.466;2023-01-25T04:55:38;103618.22;;;0.32;100.00
66273;BME280;58450;52.150;4.466;2023-01-25T04:58:05;103610.38;;;0.28;100.00
66273;BME280;58450;52.150;4.466;2023-01-25T05:00:33;103610.28;;;0.32;100.00
66273;BME280;58450;52.150;4.466;2023-01-25T05:03:02;103616.59;;;0.27;100.00
66273;BME280;58450;52.150;4.466;2023-01-25T05:05:30;103629.13;;;0.22;100.00
66273;BME280;58450;52.150;4.466;2023-01-25T05:07:57;103616.69;;;0.24;100.00
66273;BME280;58450;52.150;4.466;2023-01-25T05:10:25;103612.25;;;0.25;100.00
66273;BME280;58450;52.150;4.466;2023-01-25T05:12:52;103616.53;;;0.29;100.00
66273;BME280;58450;52.150;4.466;2023-01-25T05:15:20;103616.38;;;0.07;100.00
66273;BME280;58450;52.150;4.466;2023-01-25T05:17:47;103615.19;;;-0.11;100.00
66273;BME280;58450;52.150;4.466;2023-01-25T05:20:16;103617.75;;;-0.38;100.00
66273;BME280;58450;52.150;4.466;2023-01-25T05:22:44;103616.66;;;-0.31;100.00
66273;BME280;58450;52.150;4.466;2023-01-25T05:25:11;103602.66;;;-0.35;100.00
66273;BME280;58450;52.150;4.466;2023-01-25T05:27:53;103611.69;;;-0.42;100.00
66273;BME280;58450;52.150;4.466;2023-01-25T05:30:20;103605.78;;;-0.50;100.00
66273;BME280;58450;52.150;4.466;2023-01-25T05:32:48;103597.34;;;-0.35;100.00
66273;BME280;58450;52.150;4.466;2023-01-25T05:35:17;103602.56;;;-0.32;100.00
66273;BME280;58450;52.150;4.466;2023-01-25T05:37:44;103601.88;;;-0.38;100.00
66273;BME280;58450;52.150;4.466;2023-01-25T05:40:12;103599.78;;;-0.27;100.00
66273;BME280;58450;52.150;4.466;2023-01-25T05:42:40;103594.88;;;-0.41;100.00
66273;BME280;58450;52.150;4.466;2023-01-25T05:45:08;103596.44;;;-0.34;100.00
66273;BME280;58450;52.150;4.466;2023-01-25T05:47:36;103599.09;;;-0.34;100.00
66273;BME280;58450;52.150;4.466;2023-01-25T05:50:05;103600.78;;;-0.31;100.00
66273;BME280;58450;52.150;4.466;2023-01-25T05:52:34;103598.25;;;-0.36;100.00
66273;BME280;58450;52.150;4.466;2023-01-25T05:55:02;103608.88;;;-0.66;100.00
66273;BME280;58450;52.150;4.466;2023-01-25T05:57:30;103604.81;;;-0.48;100.00
66273;BME280;58450;52.150;4.466;2023-01-25T05:59:57;103607.53;;;-0.51;100.00
66273;BME280;58450;52.150;4.466;2023-01-25T06:02:25;103613.63;;;-0.47;100.00
66273;BME280;58450;52.150;4.466;2023-01-25T06:04:52;103615.03;;;-0.35;100.00
66273;BME280;58450;52.150;4.466;2023-01-25T06:07:20;103606.75;;;-0.24;100.00
66273;BME280;58450;52.150;4.466;2023-01-25T06:09:48;103615.56;;;-0.24;100.00
66273;BME280;58450;52.150;4.466;2023-01-25T06:12:19;103606.03;;;-0.30;100.00
66273;BME280;58450;52.150;4.466;2023-01-25T06:14:47;103608.28;;;-0.46;100.00
66273;BME280;58450;52.150;4.466;2023-01-25T06:17:14;103613.75;;;-0.52;100.00
66273;BME280;58450;52.150;4.466;2023-01-25T06:19:42;103611.75;;;-0.43;100.00
66273;BME280;58450;52.150;4.466;2023-01-25T06:22:09;103611.69;;;-0.42;100.00
66273;BME280;58450;52.150;4.466;2023-01-25T06:24:37;103610.06;;;-0.46;100.00
66273;BME280;58450;52.150;4.466;2023-01-25T06:27:05;103612.47;;;-0.38;100.00
66273;BME280;58450;52.150;4.466;2023-01-25T06:29:33;103609.03;;;-0.42;100.00
66273;BME280;58450;52.150;4.466;2023-01-25T06:32:01;103610.28;;;-0.54;100.00
66273;BME280;58450;52.150;4.466;2023-01-25T06:34:28;103610.34;;;-0.55;100.00
66273;BME280;58450;52.150;4.466;2023-01-25T06:36:55;103602.59;;;-0.62;100.00
66273;BME280;58450;52.150;4.466;2023-01-25T06:39:23;103598.28;;;-0.66;100.00
66273;BME280;58450;52.150;4.466;2023-01-25T06:41:50;103598.84;;;-0.54;100.00
66273;BME280;58450;52.150;4.466;2023-01-25T06:44:19;103598.34;;;-0.39;100.00
66273;BME280;58450;52.150;4.466;2023-01-25T06:46:47;103596.50;;;-0.35;100.00
66273;BME280;58450;52.150;4.466;2023-01-25T06:49:14;103599.97;;;-0.33;100.00
66273;BME280;58450;52.150;4.466;2023-01-25T06:51:42;103601.25;;;-0.47;100.00
66273;BME280;58450;52.150;4.466;2023-01-25T06:54:09;103596.13;;;-0.53;100.00
66273;BME280;58450;52.150;4.466;2023-01-25T06:56:37;103586.25;;;-0.46;100.00
66273;BME280;58450;52.150;4.466;2023-01-25T06:59:04;103593.16;;;-0.42;100.00
66273;BME280;58450;52.150;4.466;2023-01-25T07:01:33;103594.69;;;-0.33;100.00
66273;BME280;58450;52.150;4.466;2023-01-25T07:04:00;103588.38;;;-0.29;100.00
66273;BME280;58450;52.150;4.466;2023-01-25T07:06:31;103597.84;;;-0.22;100.00
66273;BME280;58450;52.150;4.466;2023-01-25T07:09:03;103595.94;;;-0.17;100.00
66273;BME280;58450;52.150;4.466;2023-01-25T07:11:32;103588.00;;;-0.17;100.00
66273;BME280;58450;52.150;4.466;2023-01-25T07:14:00;103595.34;;;-0.26;100.00
66273;BME280;58450;52.150;4.466;2023-01-25T07:16:28;103586.38;;;-0.21;100.00
66273;BME280;58450;52.150;4.466;2023-01-25T07:19:03;103590.97;;;-0.27;100.00
66273;BME280;58450;52.150;4.466;2023-01-25T07:21:30;103590.78;;;-0.21;100.00
66273;BME280;58450;52.150;4.466;2023-01-25T07:23:59;103583.63;;;-0.18;100.00
66273;BME280;58450;52.150;4.466;2023-01-25T07:26:28;103585.38;;;-0.18;100.00
66273;BME280;58450;52.150;4.466;2023-01-25T07:28:58;103581.69;;;-0.12;100.00
66273;BME280;58450;52.150;4.466;2023-01-25T07:31:26;103574.50;;;-0.09;100.00
66273;BME280;58450;52.150;4.466;2023-01-25T07:33:55;103570.91;;;-0.06;100.00
66273;BME280;58450;52.150;4.466;2023-01-25T07:36:25;103579.56;;;-0.01;100.00
66273;BME280;58450;52.150;4.466;2023-01-25T07:38:53;103566.19;;;0.02;100.00
66273;BME280;58450;52.150;4.466;2023-01-25T07:41:22;103562.63;;;0.03;100.00
66273;BME280;58450;52.150;4.466;2023-01-25T07:43:51;103566.00;;;0.08;100.00
66273;BME280;58450;52.150;4.466;2023-01-25T07:46:19;103555.50;;;0.05;100.00
66273;BME280;58450;52.150;4.466;2023-01-25T07:48:50;103554.56;;;0.08;100.00
66273;BME280;58450;52.150;4.466;2023-01-25T07:51:20;103561.50;;;0.12;100.00
66273;BME280;58450;52.150;4.466;2023-01-25T07:53:52;103549.88;;;0.16;100.00
66273;BME280;58450;52.150;4.466;2023-01-25T07:56:22;103557.81;;;0.16;100.00
66273;BME280;58450;52.150;4.466;2023-01-25T07:58:51;103551.53;;;0.19;100.00
66273;BME280;58450;52.150;4.466;2023-01-25T08:01:21;103555.28;;;0.13;100.00
66273;BME280;58450;52.150;4.466;2023-01-25T08:03:51;103558.84;;;0.12;100.00
66273;BME280;58450;52.150;4.466;2023-01-25T08:06:22;103550.81;;;0.13;100.00
66273;BME280;58450;52.150;4.466;2023-01-25T08:08:53;103542.78;;;0.17;100.00
66273;BME280;58450;52.150;4.466;2023-01-25T08:11:23;103551.72;;;0.14;100.00
66273;BME280;58450;52.150;4.466;2023-01-25T08:13:53;103547.13;;;0.19;100.00
66273;BME280;58450;52.150;4.466;2023-01-25T08:16:22;103545.41;;;0.18;100.00
66273;BME280;58450;52.150;4.466;2023-01-25T08:18:52;103543.50;;;0.22;100.00
66273;BME280;58450;52.150;4.466;2023-01-25T08:21:22;103545.13;;;0.26;100.00
66273;BME280;58450;52.150;4.466;2023-01-25T08:23:56;103545.22;;;0.23;100.00
66273;BME280;58450;52.150;4.466;2023-01-25T08:26:24;103536.56;;;0.18;100.00
66273;BME280;58450;52.150;4.466;2023-01-25T08:28:52;103532.25;;;0.15;100.00
66273;BME280;58450;52.150;4.466;2023-01-25T08:31:22;103529.19;;;0.27;100.00
66273;BME280;58450;52.150;4.466;2023-01-25T08:33:52;103529.03;;;0.32;100.00
66273;BME280;58450;52.150;4.466;2023-01-25T08:36:21;103529.53;;;0.17;100.00
66273;BME280;58450;52.150;4.466;2023-01-25T08:38:55;103531.94;;;0.24;100.00
66273;BME280;58450;52.150;4.466;2023-01-25T08:41:25;103538.56;;;0.11;100.00
66273;BME280;58450;52.150;4.466;2023-01-25T08:43:55;103537.06;;;0.02;100.00
66273;BME280;58450;52.150;4.466;2023-01-25T08:46:25;103525.47;;;0.06;100.00
66273;BME280;58450;52.150;4.466;2023-01-25T08:48:55;103528.59;;;0.19;100.00
66273;BME280;58450;52.150;4.466;2023-01-25T08:51:24;103524.31;;;0.15;100.00
66273;BME280;58450;52.150;4.466;2023-01-25T08:53:54;103527.56;;;0.23;100.00
66273;BME280;58450;52.150;4.466;2023-01-25T08:56:22;103521.38;;;0.23;100.00
66273;BME280;58450;52.150;4.466;2023-01-25T08:58:49;103527.16;;;0.36;100.00
66273;BME280;58450;52.150;4.466;2023-01-25T09:01:18;103535.81;;;0.41;100.00
66273;BME280;58450;52.150;4.466;2023-01-25T09:03:47;103529.19;;;0.53;100.00
66273;BME280;58450;52.150;4.466;2023-01-25T09:06:17;103526.00;;;0.43;100.00
66273;BME280;58450;52.150;4.466;2023-01-25T09:08:46;103529.19;;;0.53;100.00
66273;BME280;58450;52.150;4.466;2023-01-25T09:11:17;103518.47;;;0.56;100.00
66273;BME280;58450;52.150;4.466;2023-01-25T09:13:46;103522.75;;;0.60;100.00
66273;BME280;58450;52.150;4.466;2023-01-25T09:16:17;103510.47;;;0.57;100.00
66273;BME280;58450;52.150;4.466;2023-01-25T09:18:53;103504.56;;;0.49;100.00
66273;BME280;58450;52.150;4.466;2023-01-25T09:21:21;103500.78;;;0.56;100.00
66273;BME280;58450;52.150;4.466;2023-01-25T09:23:50;103497.22;;;0.57;100.00
66273;BME280;58450;52.150;4.466;2023-01-25T09:26:20;103492.09;;;0.53;100.00
66273;BME280;58450;52.150;4.466;2023-01-25T09:28:49;103491.06;;;0.57;100.00
66273;BME280;58450;52.150;4.466;2023-01-25T09:31:20;103492.91;;;0.55;100.00
66273;BME280;58450;52.150;4.466;2023-01-25T09:33:49;103490.84;;;0.63;100.00
66273;BME280;58450;52.150;4.466;2023-01-25T09:36:18;103485.13;;;0.74;100.00
66273;BME280;58450;52.150;4.466;2023-01-25T09:38:46;103483.63;;;0.67;100.00
66273;BME280;58450;52.150;4.466;2023-01-25T09:41:33;103479.84;;;0.74;100.00
66273;BME280;58450;52.150;4.466;2023-01-25T09:44:26;103472.66;;;0.78;100.00
66273;BME280;58450;52.150;4.466;2023-01-25T09:47:14;103462.78;;;0.81;100.00
66273;BME280;58450;52.150;4.466;2023-01-25T09:50:23;103467.13;;;0.84;100.00
66273;BME280;58450;52.150;4.466;2023-01-25T09:53:15;103466.00;;;0.90;100.00
66273;BME280;58450;52.150;4.466;2023-01-25T09:55:50;103458.75;;;0.95;100.00
66273;BME280;58450;52.150;4.466;2023-01-25T09:58:27;103457.69;;;0.99;100.00
66273;BME280;58450;52.150;4.466;2023-01-25T10:01:21;103443.28;;;1.06;100.00
66273;BME280;58450;52.150;4.466;2023-01-25T10:03:56;103450.06;;;1.13;100.00
66273;BME280;58450;52.150;4.466;2023-01-25T10:06:35;103442.94;;;1.15;100.00
66273;BME280;58450;52.150;4.466;2023-01-25T10:09:19;103441.06;;;1.17;100.00
66273;BME280;58450;52.150;4.466;2023-01-25T10:11:58;103429.66;;;1.15;100.00
66273;BME280;58450;52.150;4.466;2023-01-25T10:14:36;103428.06;;;1.11;100.00
66273;BME280;58450;52.150;4.466;2023-01-25T10:17:06;103419.13;;;0.90;100.00
66273;BME280;58450;52.150;4.466;2023-01-25T10:19:53;103431.44;;;0.93;100.00
66273;BME280;58450;52.150;4.466;2023-01-25T10:22:36;103426.25;;;0.90;100.00
66273;BME280;58450;52.150;4.466;2023-01-25T10:25:33;103416.88;;;1.03;100.00
66273;BME280;58450;52.150;4.466;2023-01-25T10:28:23;103408.63;;;1.11;100.00
66273;BME280;58450;52.150;4.466;2023-01-25T10:31:01;103412.31;;;1.07;100.00
66273;BME280;58450;52.150;4.466;2023-01-25T10:33:34;103416.09;;;1.23;100.00
66273;BME280;58450;52.150;4.466;2023-01-25T10:36:12;103418.94;;;1.18;100.00
66273;BME280;58450;52.150;4.466;2023-01-25T10:38:42;103411.22;;;1.12;100.00
66273;BME280;58450;52.150;4.466;2023-01-25T10:41:17;103407.00;;;1.07;100.00
66273;BME280;58450;52.150;4.466;2023-01-25T10:43:49;103404.66;;;0.99;100.00
66273;BME280;58450;52.150;4.466;2023-01-25T10:46:39;103398.56;;;0.97;100.00
66273;BME280;58450;52.150;4.466;2023-01-25T10:49:19;103387.34;;;1.12;100.00
66273;BME280;58450;52.150;4.466;2023-01-25T10:51:50;103383.69;;;1.15;100.00
66273;BME280;58450;52.150;4.466;2023-01-25T10:54:17;103377.59;;;0.91;100.00
66273;BME280;58450;52.150;4.466;2023-01-25T10:56:48;103374.63;;;0.76;100.00
66273;BME280;58450;52.150;4.466;2023-01-25T10:59:20;103369.53;;;0.94;100.00
66273;BME280;58450;52.150;4.466;2023-01-25T11:01:52;103362.28;;;0.97;100.00
66273;BME280;58450;52.150;4.466;2023-01-25T11:04:28;103360.50;;;0.98;100.00
66273;BME280;58450;52.150;4.466;2023-01-25T11:07:02;103355.69;;;0.85;100.00
66273;BME280;58450;52.150;4.466;2023-01-25T11:09:33;103350.22;;;1.12;100.00
66273;BME280;58450;52.150;4.466;2023-01-25T11:12:05;103362.31;;;1.20;100.00
66273;BME280;58450;52.150;4.466;2023-01-25T11:14:45;103358.09;;;1.14;100.00
66273;BME280;58450;52.150;4.466;2023-01-25T11:17:23;103348.09;;;0.98;100.00
66273;BME280;58450;52.150;4.466;2023-01-25T11:20:09;103343.00;;;0.94;100.00
66273;BME280;58450;52.150;4.466;2023-01-25T11:22:51;103325.41;;;0.91;100.00
66273;BME280;58450;52.150;4.466;2023-01-25T11:25:28;103313.72;;;0.75;100.00
66273;BME280;58450;52.150;4.466;2023-01-25T11:28:18;103314.94;;;0.66;100.00
66273;BME280;58450;52.150;4.466;2023-01-25T11:30:49;103314.88;;;0.67;100.00
66273;BME280;58450;52.150;4.466;2023-01-25T11:33:20;103309.66;;;0.88;100.00
66273;BME280;58450;52.150;4.466;2023-01-25T11:36:04;103290.69;;;0.97;100.00
66273;BME280;58450;52.150;4.466;2023-01-25T11:38:59;103290.22;;;0.87;100.00
66273;BME280;58450;52.150;4.466;2023-01-25T11:41:48;103277.19;;;1.03;100.00
66273;BME280;58450;52.150;4.466;2023-01-25T11:44:49;103273.88;;;0.98;100.00
66273;BME280;58450;52.150;4.466;2023-01-25T11:47:39;103262.97;;;1.06;100.00
66273;BME280;58450;52.150;4.466;2023-01-25T11:50:27;103254.47;;;1.18;100.00
66273;BME280;58450;52.150;4.466;2023-01-25T11:53:23;103249.44;;;1.12;100.00
66273;BME280;58450;52.150;4.466;2023-01-25T11:56:08;103244.91;;;0.94;100.00
66273;BME280;58450;52.150;4.466;2023-01-25T11:58:59;103240.22;;;0.78;100.00
66273;BME280;58450;52.150;4.466;2023-01-25T12:01:48;103231.06;;;0.87;100.00
66273;BME280;58450;52.150;4.466;2023-01-25T12:05:01;103219.19;;;0.96;100.00
66273;BME280;58450;52.150;4.466;2023-01-25T12:07:50;103207.44;;;1.01;100.00
66273;BME280;58450;52.150;4.466;2023-01-25T12:10:38;103204.00;;;0.99;100.00
66273;BME280;58450;52.150;4.466;2023-01-25T12:13:20;103195.91;;;1.02;100.00
66273;BME280;58450;52.150;4.466;2023-01-25T12:16:17;103194.59;;;1.13;100.00
66273;BME280;58450;52.150;4.466;2023-01-25T12:19:13;103178.28;;;0.81;100.00
66273;BME280;58450;52.150;4.466;2023-01-25T12:22:07;103176.69;;;0.97;100.00
66273;BME280;58450;52.150;4.466;2023-01-25T12:24:58;103174.03;;;0.97;100.00
66273;BME280;58450;52.150;4.466;2023-01-25T12:27:47;103173.78;;;1.03;100.00
66273;BME280;58450;52.150;4.466;2023-01-25T12:30:39;103169.66;;;0.96;100.00
66273;BME280;58450;52.150;4.466;2023-01-25T12:33:15;103169.34;;;1.04;100.00
66273;BME280;58450;52.150;4.466;2023-01-25T12:35:50;103157.94;;;1.02;100.00
66273;BME280;58450;52.150;4.466;2023-01-25T12:38:28;103159.25;;;0.92;100.00
66273;BME280;58450;52.150;4.466;2023-01-25T12:41:11;103154.81;;;0.71;100.00
66273;BME280;58450;52.150;4.466;2023-01-25T12:43:51;103147.31;;;0.61;100.00
66273;BME280;58450;52.150;4.466;2023-01-25T12:46:27;103148.91;;;0.65;100.00
66273;BME280;58450;52.150;4.466;2023-01-25T12:49:04;103140.69;;;0.71;100.00
66273;BME280;58450;52.150;4.466;2023-01-25T12:51:39;103135.25;;;0.53;100.00
66273;BME280;58450;52.150;4.466;2023-01-25T12:54:15;103129.25;;;0.70;100.00
66273;BME280;58450;52.150;4.466;2023-01-25T12:56:53;103124.59;;;0.55;100.00
66273;BME280;58450;52.150;4.466;2023-01-25T12:59:33;103136.72;;;0.40;100.00
66273;BME280;58450;52.150;4.466;2023-01-25T13:02:23;103123.03;;;0.49;100.00
66273;BME280;58450;52.150;4.466;2023-01-25T13:05:02;103116.09;;;0.47;100.00
66273;BME280;58450;52.150;4.466;2023-01-25T13:07:50;103113.75;;;0.61;100.00
66273;BME280;58450;52.150;4.466;2023-01-25T13:10:30;103121.47;;;0.66;100.00
66273;BME280;58450;52.150;4.466;2023-01-25T13:13:19;103111.41;;;0.74;100.00
66273;BME280;58450;52.150;4.466;2023-01-25T13:15:50;103106.78;;;0.79;100.00
66273;BME280;58450;52.150;4.466;2023-01-25T13:18:36;103096.28;;;0.55;100.00